Terminal Aerodrome Forecast
Issued by NWS Sterling, VA

Current Version | Previous Version | Graphics & Text | Print | Product List | Glossary On
Versions: 1 2 3 4 5 6 7 8 9 10 11 12 13 14 15 16 17 18 19 20 21 22 23
252
FTUS41 KLWX 200537
TAFIAD
TAF
KIAD 200537Z 2006/2112 32004KT P6SM FEW040 FEW250
     FM201600 33008KT P6SM FEW200 FEW250
     FM210000 35004KT P6SM FEW150 FEW250=

USA.gov is the U.S. government's official web portal to all federal, state and local government web resources and services.